createdAt,value
2023-08-10T00:00:41.267Z,100116.66
2023-08-10T00:06:06.984Z,100117.05
2023-08-10T00:11:14.197Z,100113.07
2023-08-10T00:16:19.414Z,100106.75
2023-08-10T00:21:24.147Z,100111.17
2023-08-10T00:26:30.418Z,100113.96
2023-08-10T00:31:36.257Z,100114.05
2023-08-10T00:36:41.662Z,100116.55
2023-08-10T00:41:46.526Z,100118.33
2023-08-10T00:46:53.074Z,100117.73
2023-08-10T00:51:57.956Z,100119.77
2023-08-10T00:57:04.113Z,100122.48
2023-08-10T01:02:09.252Z,100125.54
2023-08-10T01:07:43.553Z,100128.27
2023-08-10T01:13:32.424Z,100131.77
2023-08-10T01:18:39.235Z,100131.69
2023-08-10T01:23:46.786Z,100131.63
2023-08-10T01:28:53.631Z,100134.64
2023-08-10T01:33:58.899Z,100141.34
2023-08-10T01:39:05.027Z,100139.30
2023-08-10T01:44:10.211Z,100140.91
2023-08-10T01:49:16.876Z,100141.02
2023-08-10T01:54:24.027Z,100141.27
2023-08-10T01:59:30.385Z,100147.69
2023-08-10T02:04:36.350Z,100144.73
2023-08-10T02:09:41.850Z,100140.70
2023-08-10T02:14:47.875Z,100143.96
2023-08-10T02:19:52.803Z,100144.56
2023-08-10T02:24:57.196Z,100148.54
2023-08-10T02:30:02.326Z,100144.23
2023-08-10T02:35:10.947Z,100147.61
2023-08-10T02:40:17.598Z,100144.33
2023-08-10T02:45:23.406Z,100153.95
2023-08-10T02:50:28.669Z,100153.84
2023-08-10T02:55:34.875Z,100156.27
2023-08-10T03:00:40.751Z,100157.70
2023-08-10T03:05:46.618Z,100164.40
2023-08-10T03:10:52.157Z,100167.36
2023-08-10T03:15:57.709Z,100169.07
2023-08-10T03:21:02.631Z,100174.06
2023-08-10T03:26:07.715Z,100184.79
2023-08-10T03:31:15.906Z,100189.41
2023-08-10T03:36:21.686Z,100194.48
2023-08-10T03:41:26.052Z,100198.67
2023-08-10T03:46:30.400Z,100194.96
2023-08-10T03:51:35.142Z,100204.65
2023-08-10T03:56:41.034Z,100209.11
2023-08-10T04:01:45.841Z,100213.50
2023-08-10T04:06:50.875Z,100217.98
2023-08-10T04:11:56.718Z,100222.85
2023-08-10T04:17:02.019Z,100220.98
2023-08-10T04:22:08.070Z,100222.05
2023-08-10T04:27:14.230Z,100225.31
2023-08-10T04:32:19.105Z,100228.73
2023-08-10T04:37:23.119Z,100231.58
2023-08-10T04:42:28.609Z,100235.86
2023-08-10T04:47:34.736Z,100245.55
2023-08-10T04:52:42.431Z,100252.66
2023-08-10T04:57:47.656Z,100249.98
2023-08-10T05:02:53.418Z,100250.33
2023-08-10T05:07:59.642Z,100253.55
2023-08-10T05:13:06.251Z,100260.55
2023-08-10T05:18:11.401Z,100261.00
2023-08-10T05:23:17.637Z,100263.35
2023-08-10T05:28:22.913Z,100259.39
2023-08-10T05:33:28.060Z,100263.38
2023-08-10T05:38:32.794Z,100262.08
2023-08-10T05:43:38.368Z,100261.63
2023-08-10T05:48:45.106Z,100257.83
2023-08-10T05:53:55.106Z,100269.19
2023-08-10T05:59:00.319Z,100268.92
2023-08-10T06:04:06.680Z,100267.52
2023-08-10T06:09:13.367Z,100274.00
2023-08-10T06:14:19.995Z,100273.65
2023-08-10T06:19:25.879Z,100277.69
2023-08-10T06:24:31.601Z,100271.77
2023-08-10T06:29:36.657Z,100278.73
2023-08-10T06:34:41.758Z,100283.45
2023-08-10T06:39:47.816Z,100294.86
2023-08-10T06:44:53.039Z,100297.11
2023-08-10T06:49:59.060Z,100300.69
2023-08-10T06:55:04.402Z,100306.34
2023-08-10T07:05:18.166Z,100315.93
2023-08-10T07:10:24.363Z,100312.13
2023-08-10T07:15:30.276Z,100316.70
2023-08-10T07:20:38.528Z,100314.54
2023-08-10T07:25:42.524Z,100315.73
2023-08-10T07:30:49.625Z,100314.84
2023-08-10T07:35:55.631Z,100319.55
2023-08-10T07:41:00.240Z,100326.47
2023-08-10T07:46:08.151Z,100331.12
2023-08-10T07:51:13.035Z,100332.05
2023-08-10T07:56:17.649Z,100332.23
2023-08-10T08:01:21.596Z,100328.11
2023-08-10T08:06:26.291Z,100331.81
2023-08-10T08:11:31.214Z,100331.33
2023-08-10T08:16:37.393Z,100334.06
2023-08-10T08:21:41.819Z,100330.34
2023-08-10T08:26:46.958Z,100327.45
2023-08-10T08:31:50.923Z,100330.40
2023-08-10T08:36:55.788Z,100324.64
2023-08-10T08:42:01.823Z,100329.23
2023-08-10T08:47:09.377Z,100331.72
2023-08-10T08:52:14.274Z,100334.36
2023-08-10T08:57:17.784Z,100334.16
2023-08-10T09:02:25.068Z,100328.77
2023-08-10T09:07:31.910Z,100329.98
2023-08-10T09:12:41.666Z,100327.98
2023-08-10T09:17:49.407Z,100330.48
2023-08-10T09:22:59.154Z,100334.70
2023-08-10T09:28:12.547Z,100337.39
2023-08-10T09:33:33.303Z,100336.36
2023-08-10T09:38:37.460Z,100337.67
2023-08-10T09:43:46.185Z,100332.52
2023-08-10T09:48:52.181Z,100332.45
2023-08-10T09:53:58.514Z,100330.44
2023-08-10T09:59:04.396Z,100334.39
2023-08-10T10:04:09.701Z,100331.98
2023-08-10T10:09:15.668Z,100335.96
2023-08-10T10:14:23.262Z,100338.08
2023-08-10T10:19:29.608Z,100338.88
2023-08-10T10:24:35.951Z,100335.46
2023-08-10T10:30:04.615Z,100334.70
2023-08-10T10:35:10.901Z,100336.66
2023-08-10T10:40:25.231Z,100333.32
2023-08-10T10:45:44.736Z,100337.21
2023-08-10T10:50:50.565Z,100334.43
2023-08-10T10:55:55.237Z,100333.08
2023-08-10T11:01:04.882Z,100334.73
2023-08-10T11:06:22.059Z,100332.90
2023-08-10T11:11:27.411Z,100327.41
2023-08-10T11:16:43.726Z,100328.12
2023-08-10T11:21:54.876Z,100329.45
2023-08-10T11:27:01.588Z,100322.80
2023-08-10T11:32:08.180Z,100324.73
2023-08-10T11:37:13.092Z,100326.78
2023-08-10T11:42:18.471Z,100326.09
2023-08-10T11:47:23.151Z,100321.41
2023-08-10T11:52:29.255Z,100317.51
2023-08-10T11:57:38.087Z,100311.85
2023-08-10T12:02:43.214Z,100303.55
2023-08-10T12:07:50.136Z,100293.10
2023-08-10T12:13:05.243Z,100290.02
2023-08-10T12:18:11.492Z,100291.34
2023-08-10T12:23:18.181Z,100289.10
2023-08-10T12:28:22.656Z,100288.39
2023-08-10T12:33:28.787Z,100284.77
2023-08-10T12:38:34.046Z,100283.89
2023-08-10T12:43:40.102Z,100281.27
2023-08-10T12:48:48.538Z,100285.07
2023-08-10T12:53:59.097Z,100286.72
2023-08-10T12:59:07.498Z,100283.79
2023-08-10T13:04:13.545Z,100283.86
2023-08-10T13:09:17.987Z,100287.35
2023-08-10T13:14:26.323Z,100284.06
2023-08-10T13:19:30.426Z,100277.21
2023-08-10T13:24:35.785Z,100278.05
2023-08-10T13:29:39.633Z,100272.60
2023-08-10T13:34:44.301Z,100273.25
2023-08-10T13:39:48.670Z,100273.72
2023-08-10T13:44:53.090Z,100275.77
2023-08-10T13:49:58.342Z,100270.45
2023-08-10T13:55:05.428Z,100269.55
2023-08-10T14:00:11.850Z,100264.41
2023-08-10T14:05:16.712Z,100256.80
2023-08-10T14:10:20.493Z,100256.96
2023-08-10T14:15:26.419Z,100259.83
2023-08-10T14:20:29.943Z,100259.17
2023-08-10T14:25:33.935Z,100257.01
2023-08-10T14:30:37.789Z,100254.52
2023-08-10T14:35:41.592Z,100256.72
2023-08-10T14:40:45.406Z,100250.23
2023-08-10T14:45:49.180Z,100255.73
2023-08-10T14:50:54.221Z,100250.02
2023-08-10T14:55:59.411Z,100252.42
2023-08-10T15:01:04.186Z,100247.78
2023-08-10T15:06:08.895Z,100253.55
2023-08-10T15:11:17.049Z,100261.46
2023-08-10T15:16:22.980Z,100258.52
2023-08-10T15:21:27.620Z,100253.19
2023-08-10T15:26:32.235Z,100255.80
2023-08-10T15:31:37.167Z,100252.85
2023-08-10T15:36:42.379Z,100244.80
2023-08-10T15:41:47.244Z,100246.66
2023-08-10T15:46:51.404Z,100249.38
2023-08-10T15:51:54.966Z,100255.14
2023-08-10T15:57:00.794Z,100255.73
2023-08-10T16:02:06.318Z,100250.29
2023-08-10T16:07:10.612Z,100258.77
2023-08-10T16:12:15.425Z,100253.00
2023-08-10T16:17:19.195Z,100256.14
2023-08-10T16:22:24.801Z,100253.48
2023-08-10T16:27:30.338Z,100260.72
2023-08-10T16:32:35.545Z,100253.25
2023-08-10T16:37:42.920Z,100257.60
2023-08-10T16:42:48.401Z,100257.75
2023-08-10T16:47:53.836Z,100255.86
2023-08-10T16:52:59.494Z,100261.63
2023-08-10T16:58:04.047Z,100265.96
2023-08-10T17:03:07.987Z,100267.67
2023-08-10T17:08:12.695Z,100270.48
2023-08-10T17:13:16.657Z,100275.23
2023-08-10T17:18:21.477Z,100274.89
2023-08-10T17:23:26.231Z,100277.04
2023-08-10T17:28:30.553Z,100287.37
2023-08-10T17:33:34.633Z,100292.61
2023-08-10T17:38:41.350Z,100296.72
2023-08-10T17:43:46.511Z,100298.57
2023-08-10T17:48:52.011Z,100298.52
2023-08-10T17:53:58.650Z,100302.76
2023-08-10T17:59:07.504Z,100307.16
2023-08-10T18:04:16.105Z,100306.15
2023-08-10T18:09:23.697Z,100310.15
2023-08-10T18:14:28.177Z,100315.52
2023-08-10T18:19:33.421Z,100317.34
2023-08-10T18:24:39.047Z,100323.30
2023-08-10T18:29:47.494Z,100325.41
2023-08-10T18:34:53.975Z,100330.40
2023-08-10T18:39:59.568Z,100337.68
2023-08-10T18:45:03.559Z,100341.30
2023-08-10T18:50:07.759Z,100340.98
2023-08-10T18:55:11.373Z,100346.77
2023-08-10T19:00:17.459Z,100346.04
2023-08-10T19:05:22.962Z,100354.15
2023-08-10T19:10:27.432Z,100355.30
2023-08-10T19:15:35.228Z,100353.61
2023-08-10T19:20:43.438Z,100357.44
2023-08-10T19:25:48.974Z,100354.48
2023-08-10T19:30:53.641Z,100356.59
2023-08-10T19:35:57.855Z,100364.19
2023-08-10T19:41:03.243Z,100363.05
2023-08-10T19:46:07.581Z,100368.41
2023-08-10T19:51:13.159Z,100372.47
2023-08-10T19:56:18.677Z,100377.02
2023-08-10T20:01:23.470Z,100374.98
2023-08-10T20:06:28.607Z,100377.94
2023-08-10T20:11:34.145Z,100374.97
2023-08-10T20:16:43.913Z,100375.30
2023-08-10T20:21:50.442Z,100378.27
2023-08-10T20:26:56.710Z,100379.82
2023-08-10T20:32:01.279Z,100381.23
2023-08-10T20:37:10.425Z,100380.22
2023-08-10T20:42:16.824Z,100375.43
2023-08-10T20:47:22.547Z,100372.10
2023-08-10T20:52:29.399Z,100377.05
2023-08-10T20:57:33.697Z,100378.48
2023-08-10T21:02:37.768Z,100376.05
2023-08-10T21:07:43.127Z,100372.61
2023-08-10T21:12:47.182Z,100370.73
2023-08-10T21:17:51.587Z,100372.94
2023-08-10T21:22:56.219Z,100365.04
2023-08-10T21:28:00.138Z,100365.34
2023-08-10T21:33:05.377Z,100370.66
2023-08-10T21:38:10.126Z,100371.48
2023-08-10T21:43:13.946Z,100373.30
2023-08-10T21:48:20.174Z,100369.42
2023-08-10T21:53:24.312Z,100375.26
2023-08-10T21:58:28.852Z,100375.56
2023-08-10T22:03:33.428Z,100380.70
2023-08-10T22:08:38.503Z,100382.65
2023-08-10T22:13:43.367Z,100380.74
2023-08-10T22:18:48.389Z,100381.39
2023-08-10T22:23:54.341Z,100380.89
2023-08-10T22:28:58.351Z,100382.45
2023-08-10T22:34:03.313Z,100385.67
2023-08-10T22:39:10.402Z,100389.11
2023-08-10T22:44:16.120Z,100391.48
2023-08-10T22:49:22.288Z,100388.62
2023-08-10T22:54:28.677Z,100387.03
2023-08-10T22:59:34.530Z,100384.42
2023-08-10T23:04:40.416Z,100387.50
2023-08-10T23:09:47.254Z,100387.84
2023-08-10T23:14:52.617Z,100387.13
2023-08-10T23:20:01.405Z,100385.63
2023-08-10T23:25:06.239Z,100387.74
2023-08-10T23:30:11.937Z,100384.36
2023-08-10T23:35:18.556Z,100381.45
2023-08-10T23:40:23.119Z,100380.65
2023-08-10T23:45:27.220Z,100371.75
2023-08-10T23:50:32.308Z,100374.08
2023-08-10T23:55:37.900Z,100374.08
